sensor_id;sensor_type;location;lat;lon;timestamp;temperature;humidity
15111;DHT22;7656;51.954;7.998;2023-05-10T00:01:37;16.20;99.90
15111;DHT22;7656;51.954;7.998;2023-05-10T00:05:58;15.90;99.90
15111;DHT22;7656;51.954;7.998;2023-05-10T00:10:19;15.90;99.90
15111;DHT22;7656;51.954;7.998;2023-05-10T00:14:40;16.10;99.90
15111;DHT22;7656;51.954;7.998;2023-05-10T00:19:01;16.10;99.90
15111;DHT22;7656;51.954;7.998;2023-05-10T00:23:22;16.20;99.90
15111;DHT22;7656;51.954;7.998;2023-05-10T00:27:44;16.30;99.90
15111;DHT22;7656;51.954;7.998;2023-05-10T00:32:06;16.20;99.90
15111;DHT22;7656;51.954;7.998;2023-05-10T00:36:27;16.10;99.90
15111;DHT22;7656;51.954;7.998;2023-05-10T00:40:48;16.20;99.90
15111;DHT22;7656;51.954;7.998;2023-05-10T00:45:18;16.10;99.90
15111;DHT22;7656;51.954;7.998;2023-05-10T00:49:40;16.10;99.90
15111;DHT22;7656;51.954;7.998;2023-05-10T00:54:03;16.20;99.90
15111;DHT22;7656;51.954;7.998;2023-05-10T00:58:24;16.20;99.90
15111;DHT22;7656;51.954;7.998;2023-05-10T01:02:48;16.10;99.90
15111;DHT22;7656;51.954;7.998;2023-05-10T01:07:10;15.90;99.90
15111;DHT22;7656;51.954;7.998;2023-05-10T01:11:33;15.90;99.90
15111;DHT22;7656;51.954;7.998;2023-05-10T01:15:57;16.00;99.90
15111;DHT22;7656;51.954;7.998;2023-05-10T01:20:18;15.90;99.90
15111;DHT22;7656;51.954;7.998;2023-05-10T01:34:27;15.70;99.90
15111;DHT22;7656;51.954;7.998;2023-05-10T01:38:55;15.70;99.90
15111;DHT22;7656;51.954;7.998;2023-05-10T01:43:23;15.80;99.90
15111;DHT22;7656;51.954;7.998;2023-05-10T01:48:05;15.90;99.90
15111;DHT22;7656;51.954;7.998;2023-05-10T01:52:32;15.90;99.90
15111;DHT22;7656;51.954;7.998;2023-05-10T01:57:03;16.00;99.90
15111;DHT22;7656;51.954;7.998;2023-05-10T02:01:26;16.00;99.90
15111;DHT22;7656;51.954;7.998;2023-05-10T02:05:48;16.00;99.90
15111;DHT22;7656;51.954;7.998;2023-05-10T02:10:11;15.90;99.90
15111;DHT22;7656;51.954;7.998;2023-05-10T02:14:35;15.90;99.90
15111;DHT22;7656;51.954;7.998;2023-05-10T02:18:59;15.90;99.90
15111;DHT22;7656;51.954;7.998;2023-05-10T02:23:23;15.90;99.90
15111;DHT22;7656;51.954;7.998;2023-05-10T02:27:46;15.80;99.90
15111;DHT22;7656;51.954;7.998;2023-05-10T02:32:10;15.90;99.90
15111;DHT22;7656;51.954;7.998;2023-05-10T02:36:32;15.90;99.90
15111;DHT22;7656;51.954;7.998;2023-05-10T02:40:54;15.80;99.90
15111;DHT22;7656;51.954;7.998;2023-05-10T02:45:23;15.80;99.90
15111;DHT22;7656;51.954;7.998;2023-05-10T02:49:45;15.40;99.90
15111;DHT22;7656;51.954;7.998;2023-05-10T02:54:10;15.10;99.90
15111;DHT22;7656;51.954;7.998;2023-05-10T02:58:33;15.00;99.90
15111;DHT22;7656;51.954;7.998;2023-05-10T03:02:54;15.00;99.90
15111;DHT22;7656;51.954;7.998;2023-05-10T03:07:16;14.60;99.90
15111;DHT22;7656;51.954;7.998;2023-05-10T03:16:32;14.60;99.90
15111;DHT22;7656;51.954;7.998;2023-05-10T03:21:05;14.80;99.90
15111;DHT22;7656;51.954;7.998;2023-05-10T03:25:31;14.80;99.90
15111;DHT22;7656;51.954;7.998;2023-05-10T03:29:53;14.80;99.90
15111;DHT22;7656;51.954;7.998;2023-05-10T03:34:16;14.80;99.90
15111;DHT22;7656;51.954;7.998;2023-05-10T03:38:38;14.70;99.90
15111;DHT22;7656;51.954;7.998;2023-05-10T03:43:00;14.70;99.90
15111;DHT22;7656;51.954;7.998;2023-05-10T03:47:21;14.80;99.90
15111;DHT22;7656;51.954;7.998;2023-05-10T03:51:42;14.90;99.90
15111;DHT22;7656;51.954;7.998;2023-05-10T03:56:04;14.90;99.90
15111;DHT22;7656;51.954;7.998;2023-05-10T04:00:25;14.80;99.90
15111;DHT22;7656;51.954;7.998;2023-05-10T04:04:49;14.80;99.90
15111;DHT22;7656;51.954;7.998;2023-05-10T04:09:10;14.60;99.90
15111;DHT22;7656;51.954;7.998;2023-05-10T04:13:33;14.60;99.90
15111;DHT22;7656;51.954;7.998;2023-05-10T04:17:55;14.60;99.90
15111;DHT22;7656;51.954;7.998;2023-05-10T04:22:16;14.70;99.90
15111;DHT22;7656;51.954;7.998;2023-05-10T04:26:38;14.80;99.90
15111;DHT22;7656;51.954;7.998;2023-05-10T04:31:05;14.80;99.90
15111;DHT22;7656;51.954;7.998;2023-05-10T04:35:28;14.80;99.90
15111;DHT22;7656;51.954;7.998;2023-05-10T04:39:49;14.60;99.90
15111;DHT22;7656;51.954;7.998;2023-05-10T04:44:10;14.80;99.90
15111;DHT22;7656;51.954;7.998;2023-05-10T04:48:32;14.80;99.90
15111;DHT22;7656;51.954;7.998;2023-05-10T04:52:53;14.80;99.90
15111;DHT22;7656;51.954;7.998;2023-05-10T04:57:14;15.00;99.90
15111;DHT22;7656;51.954;7.998;2023-05-10T05:01:35;15.00;99.90
15111;DHT22;7656;51.954;7.998;2023-05-10T05:05:56;14.80;99.90
15111;DHT22;7656;51.954;7.998;2023-05-10T05:10:17;15.00;99.90
15111;DHT22;7656;51.954;7.998;2023-05-10T05:14:38;15.00;99.90
15111;DHT22;7656;51.954;7.998;2023-05-10T05:18:59;15.00;99.90
15111;DHT22;7656;51.954;7.998;2023-05-10T05:23:21;15.00;99.90
15111;DHT22;7656;51.954;7.998;2023-05-10T05:27:45;15.10;99.90
15111;DHT22;7656;51.954;7.998;2023-05-10T05:32:06;15.20;99.90
15111;DHT22;7656;51.954;7.998;2023-05-10T05:36:28;15.30;99.90
15111;DHT22;7656;51.954;7.998;2023-05-10T05:40:49;15.30;99.90
15111;DHT22;7656;51.954;7.998;2023-05-10T05:45:10;15.20;99.90
15111;DHT22;7656;51.954;7.998;2023-05-10T05:49:33;15.30;99.90
15111;DHT22;7656;51.954;7.998;2023-05-10T05:53:54;15.30;99.90
15111;DHT22;7656;51.954;7.998;2023-05-10T05:58:15;15.40;99.90
15111;DHT22;7656;51.954;7.998;2023-05-10T06:02:36;15.40;99.90
15111;DHT22;7656;51.954;7.998;2023-05-10T06:06:57;15.40;99.90
15111;DHT22;7656;51.954;7.998;2023-05-10T06:11:18;15.20;99.90
15111;DHT22;7656;51.954;7.998;2023-05-10T06:15:41;15.20;99.90
15111;DHT22;7656;51.954;7.998;2023-05-10T06:20:02;15.30;99.90
15111;DHT22;7656;51.954;7.998;2023-05-10T06:24:24;15.40;99.90
15111;DHT22;7656;51.954;7.998;2023-05-10T06:28:45;15.50;99.90
15111;DHT22;7656;51.954;7.998;2023-05-10T06:33:06;15.60;99.90
15111;DHT22;7656;51.954;7.998;2023-05-10T06:37:27;15.80;99.90
15111;DHT22;7656;51.954;7.998;2023-05-10T06:41:48;15.70;99.90
15111;DHT22;7656;51.954;7.998;2023-05-10T06:46:09;15.70;99.90
15111;DHT22;7656;51.954;7.998;2023-05-10T06:50:30;15.70;99.90
15111;DHT22;7656;51.954;7.998;2023-05-10T06:54:51;15.80;99.90
15111;DHT22;7656;51.954;7.998;2023-05-10T06:59:12;16.10;99.90
15111;DHT22;7656;51.954;7.998;2023-05-10T07:03:34;16.30;99.90
15111;DHT22;7656;51.954;7.998;2023-05-10T07:07:55;16.50;99.90
15111;DHT22;7656;51.954;7.998;2023-05-10T07:12:16;16.40;99.90
15111;DHT22;7656;51.954;7.998;2023-05-10T07:16:37;16.90;99.90
15111;DHT22;7656;51.954;7.998;2023-05-10T07:20:58;17.30;99.90
15111;DHT22;7656;51.954;7.998;2023-05-10T07:25:19;17.40;99.90
15111;DHT22;7656;51.954;7.998;2023-05-10T07:29:40;17.40;99.90
15111;DHT22;7656;51.954;7.998;2023-05-10T07:34:01;17.30;99.90
15111;DHT22;7656;51.954;7.998;2023-05-10T07:38:22;17.20;99.90
15111;DHT22;7656;51.954;7.998;2023-05-10T07:42:44;16.90;99.90
15111;DHT22;7656;51.954;7.998;2023-05-10T07:47:05;16.50;99.90
15111;DHT22;7656;51.954;7.998;2023-05-10T07:51:26;16.50;99.90
15111;DHT22;7656;51.954;7.998;2023-05-10T07:55:54;16.50;99.90
15111;DHT22;7656;51.954;7.998;2023-05-10T08:00:19;16.30;99.90
15111;DHT22;7656;51.954;7.998;2023-05-10T08:04:40;16.40;99.90
15111;DHT22;7656;51.954;7.998;2023-05-10T08:09:02;16.60;99.90
15111;DHT22;7656;51.954;7.998;2023-05-10T08:13:23;16.60;99.90
15111;DHT22;7656;51.954;7.998;2023-05-10T08:17:44;17.10;99.90
15111;DHT22;7656;51.954;7.998;2023-05-10T08:35:11;28.50;99.90
15111;DHT22;7656;51.954;7.998;2023-05-10T08:39:35;27.60;99.90
15111;DHT22;7656;51.954;7.998;2023-05-10T08:43:56;25.50;99.90
15111;DHT22;7656;51.954;7.998;2023-05-10T08:48:18;25.00;99.90
15111;DHT22;7656;51.954;7.998;2023-05-10T08:52:40;25.80;99.90
15111;DHT22;7656;51.954;7.998;2023-05-10T08:57:02;25.60;99.90
15111;DHT22;7656;51.954;7.998;2023-05-10T09:01:24;24.50;99.90
15111;DHT22;7656;51.954;7.998;2023-05-10T09:05:46;24.70;99.90
15111;DHT22;7656;51.954;7.998;2023-05-10T09:10:11;25.70;99.90
15111;DHT22;7656;51.954;7.998;2023-05-10T09:14:34;25.90;99.90
15111;DHT22;7656;51.954;7.998;2023-05-10T09:18:56;26.40;99.90
15111;DHT22;7656;51.954;7.998;2023-05-10T09:23:17;26.20;99.90
15111;DHT22;7656;51.954;7.998;2023-05-10T09:27:40;25.80;99.90
15111;DHT22;7656;51.954;7.998;2023-05-10T09:32:02;25.10;99.90
15111;DHT22;7656;51.954;7.998;2023-05-10T09:36:23;24.70;99.90
15111;DHT22;7656;51.954;7.998;2023-05-10T09:40:52;24.90;99.90
15111;DHT22;7656;51.954;7.998;2023-05-10T09:45:16;24.70;99.90
15111;DHT22;7656;51.954;7.998;2023-05-10T09:49:37;24.00;99.90
15111;DHT22;7656;51.954;7.998;2023-05-10T09:54:17;23.80;99.90
15111;DHT22;7656;51.954;7.998;2023-05-10T09:58:39;23.40;99.90
15111;DHT22;7656;51.954;7.998;2023-05-10T10:03:00;22.70;99.90
15111;DHT22;7656;51.954;7.998;2023-05-10T10:07:23;22.70;99.90
15111;DHT22;7656;51.954;7.998;2023-05-10T10:11:48;23.60;99.90
15111;DHT22;7656;51.954;7.998;2023-05-10T10:16:09;24.10;99.90
15111;DHT22;7656;51.954;7.998;2023-05-10T10:20:30;24.10;99.90
15111;DHT22;7656;51.954;7.998;2023-05-10T10:24:52;24.20;99.90
15111;DHT22;7656;51.954;7.998;2023-05-10T10:34:08;25.00;99.90
15111;DHT22;7656;51.954;7.998;2023-05-10T10:38:54;25.70;99.90
15111;DHT22;7656;51.954;7.998;2023-05-10T10:43:26;25.40;99.90
15111;DHT22;7656;51.954;7.998;2023-05-10T10:47:48;24.50;99.90
15111;DHT22;7656;51.954;7.998;2023-05-10T10:52:26;22.70;99.90
15111;DHT22;7656;51.954;7.998;2023-05-10T10:57:14;22.10;99.90
15111;DHT22;7656;51.954;7.998;2023-05-10T11:01:35;22.00;99.90
15111;DHT22;7656;51.954;7.998;2023-05-10T11:05:59;22.90;99.90
15111;DHT22;7656;51.954;7.998;2023-05-10T11:10:23;23.20;99.90
15111;DHT22;7656;51.954;7.998;2023-05-10T11:14:50;23.40;99.90
15111;DHT22;7656;51.954;7.998;2023-05-10T11:19:13;23.40;99.90
15111;DHT22;7656;51.954;7.998;2023-05-10T11:28:06;23.20;99.90
15111;DHT22;7656;51.954;7.998;2023-05-10T11:32:27;22.90;99.90
15111;DHT22;7656;51.954;7.998;2023-05-10T11:36:51;22.50;99.90
15111;DHT22;7656;51.954;7.998;2023-05-10T11:41:16;22.30;99.90
15111;DHT22;7656;51.954;7.998;2023-05-10T11:45:41;23.20;99.90
15111;DHT22;7656;51.954;7.998;2023-05-10T11:50:02;24.20;99.90
15111;DHT22;7656;51.954;7.998;2023-05-10T11:54:23;24.90;99.90
15111;DHT22;7656;51.954;7.998;2023-05-10T11:58:44;24.80;99.90
15111;DHT22;7656;51.954;7.998;2023-05-10T12:03:07;23.90;99.90
15111;DHT22;7656;51.954;7.998;2023-05-10T12:07:29;23.60;99.90
15111;DHT22;7656;51.954;7.998;2023-05-10T12:11:55;23.10;99.90
15111;DHT22;7656;51.954;7.998;2023-05-10T12:16:22;23.20;99.90
15111;DHT22;7656;51.954;7.998;2023-05-10T12:20:45;23.00;99.90
15111;DHT22;7656;51.954;7.998;2023-05-10T12:25:08;22.40;99.90
15111;DHT22;7656;51.954;7.998;2023-05-10T12:29:30;21.80;99.90
15111;DHT22;7656;51.954;7.998;2023-05-10T12:33:51;21.30;99.90
15111;DHT22;7656;51.954;7.998;2023-05-10T12:38:34;21.10;99.90
15111;DHT22;7656;51.954;7.998;2023-05-10T12:42:58;21.20;99.90
15111;DHT22;7656;51.954;7.998;2023-05-10T12:47:19;20.80;99.90
15111;DHT22;7656;51.954;7.998;2023-05-10T12:51:41;20.80;99.90
15111;DHT22;7656;51.954;7.998;2023-05-10T12:56:02;21.50;99.90
15111;DHT22;7656;51.954;7.998;2023-05-10T13:00:23;21.90;99.90
15111;DHT22;7656;51.954;7.998;2023-05-10T13:04:45;21.60;99.90
15111;DHT22;7656;51.954;7.998;2023-05-10T13:09:07;21.70;99.90
15111;DHT22;7656;51.954;7.998;2023-05-10T13:13:28;21.90;99.90
15111;DHT22;7656;51.954;7.998;2023-05-10T13:17:49;22.20;99.90
15111;DHT22;7656;51.954;7.998;2023-05-10T13:22:10;22.70;99.90
15111;DHT22;7656;51.954;7.998;2023-05-10T13:26:32;23.20;99.90
15111;DHT22;7656;51.954;7.998;2023-05-10T13:30:53;23.50;99.90
15111;DHT22;7656;51.954;7.998;2023-05-10T13:35:14;23.40;99.90
15111;DHT22;7656;51.954;7.998;2023-05-10T13:39:36;23.20;99.90
15111;DHT22;7656;51.954;7.998;2023-05-10T13:43:58;23.00;99.90
15111;DHT22;7656;51.954;7.998;2023-05-10T13:48:19;22.90;99.90
15111;DHT22;7656;51.954;7.998;2023-05-10T13:52:40;23.30;99.90
15111;DHT22;7656;51.954;7.998;2023-05-10T13:57:01;23.50;99.90
15111;DHT22;7656;51.954;7.998;2023-05-10T14:01:22;23.80;99.90
15111;DHT22;7656;51.954;7.998;2023-05-10T14:05:44;23.20;99.90
15111;DHT22;7656;51.954;7.998;2023-05-10T14:10:06;23.10;99.90
15111;DHT22;7656;51.954;7.998;2023-05-10T14:14:27;22.90;99.90
15111;DHT22;7656;51.954;7.998;2023-05-10T14:18:49;22.60;99.90
15111;DHT22;7656;51.954;7.998;2023-05-10T14:23:11;22.50;99.90
15111;DHT22;7656;51.954;7.998;2023-05-10T14:27:33;22.20;99.90
15111;DHT22;7656;51.954;7.998;2023-05-10T14:31:54;21.60;99.90
15111;DHT22;7656;51.954;7.998;2023-05-10T14:36:15;21.10;99.90
15111;DHT22;7656;51.954;7.998;2023-05-10T14:40:36;20.80;99.90
15111;DHT22;7656;51.954;7.998;2023-05-10T14:44:57;20.50;99.90
15111;DHT22;7656;51.954;7.998;2023-05-10T14:49:18;20.50;99.90
15111;DHT22;7656;51.954;7.998;2023-05-10T14:53:39;20.50;99.90
15111;DHT22;7656;51.954;7.998;2023-05-10T14:58:03;20.20;99.90
15111;DHT22;7656;51.954;7.998;2023-05-10T15:02:24;20.30;99.90
15111;DHT22;7656;51.954;7.998;2023-05-10T15:06:45;20.70;99.90
15111;DHT22;7656;51.954;7.998;2023-05-10T15:11:06;20.60;99.90
15111;DHT22;7656;51.954;7.998;2023-05-10T15:15:27;20.80;99.90
15111;DHT22;7656;51.954;7.998;2023-05-10T15:19:48;21.30;99.90
15111;DHT22;7656;51.954;7.998;2023-05-10T15:24:10;21.70;99.90
15111;DHT22;7656;51.954;7.998;2023-05-10T15:28:31;21.50;99.90
15111;DHT22;7656;51.954;7.998;2023-05-10T15:32:52;21.30;99.90
15111;DHT22;7656;51.954;7.998;2023-05-10T15:37:14;21.70;99.90
15111;DHT22;7656;51.954;7.998;2023-05-10T15:41:35;21.60;99.90
15111;DHT22;7656;51.954;7.998;2023-05-10T15:45:56;21.90;99.90
15111;DHT22;7656;51.954;7.998;2023-05-10T15:50:17;22.10;99.90
15111;DHT22;7656;51.954;7.998;2023-05-10T15:54:39;22.20;99.90
15111;DHT22;7656;51.954;7.998;2023-05-10T15:59:00;22.10;99.90
15111;DHT22;7656;51.954;7.998;2023-05-10T16:03:21;21.80;99.90
15111;DHT22;7656;51.954;7.998;2023-05-10T16:07:42;21.40;99.90
15111;DHT22;7656;51.954;7.998;2023-05-10T16:12:03;21.30;99.90
15111;DHT22;7656;51.954;7.998;2023-05-10T16:16:24;21.50;99.90
15111;DHT22;7656;51.954;7.998;2023-05-10T16:20:46;21.20;99.90
15111;DHT22;7656;51.954;7.998;2023-05-10T16:25:07;21.10;99.90
15111;DHT22;7656;51.954;7.998;2023-05-10T16:29:29;21.40;99.90
15111;DHT22;7656;51.954;7.998;2023-05-10T16:33:54;21.70;99.90
15111;DHT22;7656;51.954;7.998;2023-05-10T16:38:16;21.90;99.90
15111;DHT22;7656;51.954;7.998;2023-05-10T16:42:37;21.80;99.90
15111;DHT22;7656;51.954;7.998;2023-05-10T16:46:58;21.80;99.90
15111;DHT22;7656;51.954;7.998;2023-05-10T16:51:19;20.90;99.90
15111;DHT22;7656;51.954;7.998;2023-05-10T16:55:40;20.80;99.90
15111;DHT22;7656;51.954;7.998;2023-05-10T17:00:02;20.80;99.90
15111;DHT22;7656;51.954;7.998;2023-05-10T17:04:24;20.80;99.90
15111;DHT22;7656;51.954;7.998;2023-05-10T17:08:45;20.60;99.90
15111;DHT22;7656;51.954;7.998;2023-05-10T17:13:07;20.30;99.90
15111;DHT22;7656;51.954;7.998;2023-05-10T17:17:28;20.20;99.90
15111;DHT22;7656;51.954;7.998;2023-05-10T17:21:49;20.10;99.90
15111;DHT22;7656;51.954;7.998;2023-05-10T17:26:10;20.20;99.90
15111;DHT22;7656;51.954;7.998;2023-05-10T17:30:31;20.00;99.90
15111;DHT22;7656;51.954;7.998;2023-05-10T17:34:52;20.30;99.90
15111;DHT22;7656;51.954;7.998;2023-05-10T17:39:14;20.20;99.90
15111;DHT22;7656;51.954;7.998;2023-05-10T17:43:35;19.80;99.90
15111;DHT22;7656;51.954;7.998;2023-05-10T17:47:56;19.50;99.90
15111;DHT22;7656;51.954;7.998;2023-05-10T17:52:17;19.60;99.90
15111;DHT22;7656;51.954;7.998;2023-05-10T17:56:39;19.60;99.90
15111;DHT22;7656;51.954;7.998;2023-05-10T18:01:01;19.80;99.90
15111;DHT22;7656;51.954;7.998;2023-05-10T18:05:22;19.90;99.90
15111;DHT22;7656;51.954;7.998;2023-05-10T18:09:43;19.80;99.90
15111;DHT22;7656;51.954;7.998;2023-05-10T18:14:04;19.80;99.90
15111;DHT22;7656;51.954;7.998;2023-05-10T18:18:25;19.70;99.90
15111;DHT22;7656;51.954;7.998;2023-05-10T18:22:47;19.70;99.90
15111;DHT22;7656;51.954;7.998;2023-05-10T18:27:08;19.60;99.90
15111;DHT22;7656;51.954;7.998;2023-05-10T18:31:29;19.60;99.90
15111;DHT22;7656;51.954;7.998;2023-05-10T18:35:50;19.50;99.90
15111;DHT22;7656;51.954;7.998;2023-05-10T18:40:12;19.50;99.90
15111;DHT22;7656;51.954;7.998;2023-05-10T18:44:34;19.40;99.90
15111;DHT22;7656;51.954;7.998;2023-05-10T18:48:55;19.30;99.90
15111;DHT22;7656;51.954;7.998;2023-05-10T18:53:16;19.30;99.90
15111;DHT22;7656;51.954;7.998;2023-05-10T18:57:37;19.30;99.90
15111;DHT22;7656;51.954;7.998;2023-05-10T19:02:01;19.20;99.90
15111;DHT22;7656;51.954;7.998;2023-05-10T19:06:23;19.10;99.90
15111;DHT22;7656;51.954;7.998;2023-05-10T19:10:44;18.50;99.90
15111;DHT22;7656;51.954;7.998;2023-05-10T19:15:06;17.90;99.90
15111;DHT22;7656;51.954;7.998;2023-05-10T19:19:28;17.50;99.90
15111;DHT22;7656;51.954;7.998;2023-05-10T19:23:49;17.10;99.90
15111;DHT22;7656;51.954;7.998;2023-05-10T19:28:10;16.80;99.90
15111;DHT22;7656;51.954;7.998;2023-05-10T19:32:31;16.80;99.90
15111;DHT22;7656;51.954;7.998;2023-05-10T19:36:53;16.70;99.90
15111;DHT22;7656;51.954;7.998;2023-05-10T19:41:14;16.70;99.90
15111;DHT22;7656;51.954;7.998;2023-05-10T19:45:35;16.70;99.90
15111;DHT22;7656;51.954;7.998;2023-05-10T19:49:56;16.80;99.90
15111;DHT22;7656;51.954;7.998;2023-05-10T19:54:17;16.50;99.90
15111;DHT22;7656;51.954;7.998;2023-05-10T19:58:40;16.10;99.90
15111;DHT22;7656;51.954;7.998;2023-05-10T20:03:01;15.80;99.90
15111;DHT22;7656;51.954;7.998;2023-05-10T20:07:25;15.50;99.90
15111;DHT22;7656;51.954;7.998;2023-05-10T20:11:47;15.60;99.90
15111;DHT22;7656;51.954;7.998;2023-05-10T20:16:08;15.70;99.90
15111;DHT22;7656;51.954;7.998;2023-05-10T20:20:29;15.70;99.90
15111;DHT22;7656;51.954;7.998;2023-05-10T20:24:51;15.70;99.90
15111;DHT22;7656;51.954;7.998;2023-05-10T20:29:12;15.50;99.90
15111;DHT22;7656;51.954;7.998;2023-05-10T20:33:33;15.30;99.90
15111;DHT22;7656;51.954;7.998;2023-05-10T20:37:54;15.30;99.90
15111;DHT22;7656;51.954;7.998;2023-05-10T20:42:15;15.10;99.90
15111;DHT22;7656;51.954;7.998;2023-05-10T20:46:37;15.00;99.90
15111;DHT22;7656;51.954;7.998;2023-05-10T20:50:59;15.10;99.90
15111;DHT22;7656;51.954;7.998;2023-05-10T20:55:21;15.30;99.90
15111;DHT22;7656;51.954;7.998;2023-05-10T20:59:42;15.50;99.90
15111;DHT22;7656;51.954;7.998;2023-05-10T21:04:03;15.60;99.90
15111;DHT22;7656;51.954;7.998;2023-05-10T21:08:24;15.70;99.90
15111;DHT22;7656;51.954;7.998;2023-05-10T21:12:45;15.50;99.90
15111;DHT22;7656;51.954;7.998;2023-05-10T21:17:06;15.40;99.90
15111;DHT22;7656;51.954;7.998;2023-05-10T21:21:28;15.20;99.90
15111;DHT22;7656;51.954;7.998;2023-05-10T21:25:49;15.00;99.90
15111;DHT22;7656;51.954;7.998;2023-05-10T21:30:10;15.10;99.90
15111;DHT22;7656;51.954;7.998;2023-05-10T21:34:32;15.40;99.90
15111;DHT22;7656;51.954;7.998;2023-05-10T21:38:54;15.50;99.90
15111;DHT22;7656;51.954;7.998;2023-05-10T21:43:15;15.70;99.90
15111;DHT22;7656;51.954;7.998;2023-05-10T21:47:36;15.80;99.90
15111;DHT22;7656;51.954;7.998;2023-05-10T21:51:57;15.70;99.90
15111;DHT22;7656;51.954;7.998;2023-05-10T21:56:18;15.70;99.90
15111;DHT22;7656;51.954;7.998;2023-05-10T22:00:39;15.60;99.90
15111;DHT22;7656;51.954;7.998;2023-05-10T22:05:01;15.60;99.90
15111;DHT22;7656;51.954;7.998;2023-05-10T22:09:23;15.50;99.90
15111;DHT22;7656;51.954;7.998;2023-05-10T22:13:45;15.50;99.90
15111;DHT22;7656;51.954;7.998;2023-05-10T22:18:06;15.50;99.90
15111;DHT22;7656;51.954;7.998;2023-05-10T22:22:27;15.50;99.90
15111;DHT22;7656;51.954;7.998;2023-05-10T22:26:48;15.10;99.90
15111;DHT22;7656;51.954;7.998;2023-05-10T22:31:09;15.10;99.90
15111;DHT22;7656;51.954;7.998;2023-05-10T22:35:31;15.20;99.90
15111;DHT22;7656;51.954;7.998;2023-05-10T22:39:52;15.30;99.90
15111;DHT22;7656;51.954;7.998;2023-05-10T22:44:13;15.10;99.90
15111;DHT22;7656;51.954;7.998;2023-05-10T22:48:34;15.00;99.90
15111;DHT22;7656;51.954;7.998;2023-05-10T22:52:55;15.10;99.90
15111;DHT22;7656;51.954;7.998;2023-05-10T22:57:16;15.10;99.90
15111;DHT22;7656;51.954;7.998;2023-05-10T23:01:38;15.00;99.90
15111;DHT22;7656;51.954;7.998;2023-05-10T23:05:59;14.80;99.90
15111;DHT22;7656;51.954;7.998;2023-05-10T23:10:20;14.90;99.90
15111;DHT22;7656;51.954;7.998;2023-05-10T23:14:42;14.90;99.90
15111;DHT22;7656;51.954;7.998;2023-05-10T23:19:06;15.00;99.90
15111;DHT22;7656;51.954;7.998;2023-05-10T23:23:27;15.00;99.90
15111;DHT22;7656;51.954;7.998;2023-05-10T23:27:48;15.10;99.90
15111;DHT22;7656;51.954;7.998;2023-05-10T23:32:09;15.10;99.90
15111;DHT22;7656;51.954;7.998;2023-05-10T23:36:30;14.70;99.90
15111;DHT22;7656;51.954;7.998;2023-05-10T23:40:53;14.40;99.90
15111;DHT22;7656;51.954;7.998;2023-05-10T23:45:14;14.50;99.90
15111;DHT22;7656;51.954;7.998;2023-05-10T23:49:35;14.60;99.90
15111;DHT22;7656;51.954;7.998;2023-05-10T23:53:57;14.70;99.90
15111;DHT22;7656;51.954;7.998;2023-05-10T23:58:19;14.20;99.90
